Oneonta, New York
Current Conditions -  °F | °C
As of 4:13 PM on Thursday 23 Oct 2014 (Local Time) from KBGM Reporting Station
Light Rain Light Rain  
Wind Chill: 40°   Ceiling: 1300
Heat Index: 45°   Visibility: 10mi
Dew Point: 42°   Wind: 10mph
Humidity: 90%   Direction: 330°NNW
Pressure: 29.87"   Gusts: 23mph
Location:  42.46°N, 75.06°W
Report Text: KBGM 232013Z 33009G20KT 10SM -RA OVC013 07/06 A2987 RMK AO2 RAB04 P0000 T00720056
Loading
Personal Weather Stations






























Interactive Weather Map
Tropical Storm Tracking
New forecast layout! Learn more

10-Day Weather Forecast

Advertisements
Track Severe Weather on mobile